Terminal Aerodrome Forecast
Issued by NWS Miami - South Florida

Home | Current Version | Previous Version | Text Only | Print | Product List | Glossary On
Versions: 1 2 3 4 5 6 7 8 9 10 11 12 13 14 15 16 17 18 19 20 21 22 23 24 25 26 27
000
FTUS42 KMFL 291129
TAFMIA
TAF
KMIA 291129Z 2912/3018 14007KT P6SM SCT025 BKN250
      TEMPO 2914/2918 BKN025
     FM291800 14012KT P6SM VCTS SCT025CB BKN050 PROB30 2921/2924
      VRB15G25KT 6SM TSRA SCT015 BKN025CB
     FM300200 15005KT P6SM SCT025 BKN080 PROB30 3008/3012 5SM SHRA
      BKN025=

USA.gov is the U.S. government's official web portal to all federal, state and local government web resources and services.